»·PEaware :: RA-0031G KSBA-KBUR

RA-0031G :: KSBA-KBUR

FLIGHT INFORMATION

Flight Status: Arrived
Operator: Privately registered:
Russian Federation
More flights under this callsign
Pilot: Roman K. (5863)
Aircraft: CESSNA 172 SKYHAWK
(C172)
More flights by this aircraft type
Origin: KSBA Santa Barbara Mun
United States
Destination: KBUR Bob Hope-Burbank
United States
More flights between these airports :: More routes between these airports
Route: +
File this flight plan on PilotEdge
Remarks:
Altitude:
(Current/Filed)
5,500ft
Speed:
(Current/Filed)
90kts
Departed: 08-Jan-18 10:16 AM
Arrived: 08-Jan-18 11:16 AM
Distance/Time
Traveled:
75nm/1:00
Distance/Time
To Go:
Arrived

Flight Plot

Page will automatically refresh every two minutes.


Map Options




Map Legend


Flown Route
Filed Route
Departure Airport
Arrival Airport
Navaid (VOR, NDB)
Fix

Horizontal Profiles

Position Reports

Time Latitude Longitude Heading Altitude Ground
Speed
08-Jan-18 09:56 34.424495 -119.836025 72 13ft 0kts
08-Jan-18 09:57 34.424495 -119.836025 72 13ft 0kts
08-Jan-18 09:58 34.424498 -119.836016 72 13ft 0kts
08-Jan-18 09:59 34.424501 -119.836003 72 13ft 0kts
08-Jan-18 10:00 34.424505 -119.835989 72 13ft 0kts
08-Jan-18 10:01 34.424508 -119.835976 72 13ft 0kts
08-Jan-18 10:02 34.424512 -119.835961 72 13ft 0kts
08-Jan-18 10:03 34.424515 -119.835949 72 13ft 0kts
08-Jan-18 10:04 34.424517 -119.835942 72 13ft 0kts
08-Jan-18 10:05 34.424518 -119.835937 72 13ft 0kts
08-Jan-18 10:06 34.424519 -119.835933 72 13ft 0kts
08-Jan-18 10:07 34.424520 -119.835928 72 13ft 0kts
08-Jan-18 10:08 34.424521 -119.835924 72 13ft 0kts
08-Jan-18 10:09 34.424523 -119.835919 72 13ft 0kts
08-Jan-18 10:10 34.424524 -119.835915 72 13ft 0kts
08-Jan-18 10:11 34.424525 -119.835910 72 13ft 0kts
08-Jan-18 10:12 34.424526 -119.835906 72 13ft 0kts
08-Jan-18 10:13 34.424527 -119.835901 72 13ft 0kts
08-Jan-18 10:14 34.424529 -119.835895 72 13ft 0kts
08-Jan-18 10:15 34.424612 -119.836564 217 13ft 3kts
08-Jan-18 10:16 34.424109 -119.837302 332 13ft 7kts
08-Jan-18 10:17 34.426820 -119.837838 81 13ft 3kts
08-Jan-18 10:18 34.427427 -119.835201 348 13ft 0kts
08-Jan-18 10:19 34.427440 -119.835204 348 13ft 0kts
08-Jan-18 10:20 34.427449 -119.835206 348 13ft 0kts
08-Jan-18 10:21 34.427843 -119.835412 302 13ft 8kts
08-Jan-18 10:22 34.427853 -119.848558 268 443ft 56kts
08-Jan-18 10:23 34.428336 -119.869679 266 1187ft 61kts
08-Jan-18 10:24 34.427604 -119.893341 263 1500ft 85kts
08-Jan-18 10:25 34.426235 -119.919811 274 1838ft 67kts
08-Jan-18 10:26 34.427156 -119.942561 274 2262ft 68kts
08-Jan-18 10:27 34.426563 -119.965818 266 2660ft 72kts
08-Jan-18 10:28 34.441562 -119.971173 20 3006ft 70kts
08-Jan-18 10:29 34.458693 -119.960620 23 3606ft 72kts
08-Jan-18 10:30 34.477037 -119.949824 36 4195ft 76kts
08-Jan-18 10:31 34.476191 -119.926514 104 4802ft 69kts
08-Jan-18 10:32 34.470734 -119.903215 108 5338ft 72kts
08-Jan-18 10:33 34.463503 -119.877477 108 5501ft 88kts
08-Jan-18 10:34 34.455630 -119.848384 107 5648ft 90kts
08-Jan-18 10:35 34.446909 -119.816482 106 5547ft 104kts
08-Jan-18 10:36 34.437787 -119.782360 107 5414ft 100kts
08-Jan-18 10:37 34.428831 -119.750759 107 5447ft 95kts
08-Jan-18 10:38 34.420195 -119.719625 105 5455ft 98kts
08-Jan-18 10:39 34.412440 -119.687991 107 5454ft 98kts
08-Jan-18 10:40 34.402455 -119.657048 105 5453ft 98kts
08-Jan-18 10:41 34.393782 -119.625405 105 5451ft 99kts
08-Jan-18 10:42 34.386534 -119.593549 95 5457ft 97kts
08-Jan-18 10:43 34.382548 -119.561027 99 5449ft 95kts
08-Jan-18 10:44 34.377588 -119.529049 97 5433ft 96kts
08-Jan-18 10:45 34.371877 -119.495428 98 5432ft 106kts
08-Jan-18 10:46 34.366088 -119.461436 99 5583ft 97kts
08-Jan-18 10:47 34.359233 -119.427626 107 5530ft 107kts
08-Jan-18 10:48 34.350727 -119.393370 104 5410ft 102kts
08-Jan-18 10:49 34.345296 -119.360876 98 5567ft 103kts
08-Jan-18 10:50 34.339125 -119.326836 101 5659ft 104kts
08-Jan-18 10:51 34.333914 -119.291782 97 5657ft 105kts
08-Jan-18 10:52 34.330411 -119.262761 101 5630ft 106kts
08-Jan-18 10:53 34.324585 -119.228006 102 5623ft 105kts
08-Jan-18 10:54 34.316266 -119.188074 102 5644ft 104kts
08-Jan-18 10:55 34.309927 -119.159489 107 5644ft 105kts
08-Jan-18 10:56 34.304225 -119.124948 92 5646ft 104kts
08-Jan-18 10:57 34.302415 -119.089811 93 5656ft 104kts
08-Jan-18 10:58 34.299605 -119.054776 97 5677ft 103kts
08-Jan-18 10:59 34.292151 -119.020918 91 5652ft 104kts
08-Jan-18 11:00 34.289530 -118.986237 98 5659ft 104kts
08-Jan-18 11:01 34.288227 -118.951334 87 5656ft 104kts
08-Jan-18 11:02 34.288760 -118.916372 90 5642ft 105kts
08-Jan-18 11:03 34.286125 -118.881373 94 5654ft 103kts
08-Jan-18 11:04 34.283789 -118.846386 102 5639ft 106kts
08-Jan-18 11:05 34.277797 -118.812188 98 5636ft 104kts
08-Jan-18 11:06 34.271883 -118.778024 96 5638ft 103kts
08-Jan-18 11:07 34.265504 -118.744182 107 5651ft 103kts
08-Jan-18 11:08 34.254294 -118.711994 111 5658ft 103kts
08-Jan-18 11:09 34.245560 -118.678886 102 5665ft 103kts
08-Jan-18 11:10 34.238379 -118.644879 105 5556ft 107kts
08-Jan-18 11:11 34.229438 -118.611222 100 5453ft 106kts
08-Jan-18 11:12 34.223504 -118.576258 100 5148ft 106kts
08-Jan-18 11:13 34.218083 -118.539301 98 4021ft 111kts
08-Jan-18 11:14 34.211855 -118.502894 101 3060ft 112kts
08-Jan-18 11:15 34.204968 -118.467034 99 2668ft 107kts
08-Jan-18 11:16 34.199740 -118.432166 92 2308ft 103kts
08-Jan-18 11:17 34.201111 -118.397513 86 1994ft 102kts
08-Jan-18 11:18 34.187103 -118.376578 176 1919ft 92kts
08-Jan-18 11:19 34.161700 -118.370943 119 1860ft 105kts
08-Jan-18 11:20 34.169180 -118.340540 6 1795ft 119kts
08-Jan-18 11:21 34.193378 -118.355105 345 912ft 74kts
08-Jan-18 11:22 34.205727 -118.358643 348 781ft 20kts
08-Jan-18 11:23 34.206939 -118.358116 78 781ft 0kts
08-Jan-18 11:24 34.206861 -118.357503 169 781ft 10kts
08-Jan-18 11:25 34.202934 -118.356448 166 781ft 17kts
08-Jan-18 11:26 34.197818 -118.355107 171 781ft 16kts
08-Jan-18 11:27 34.196691 -118.355347 340 781ft 0kts

Navigation Log

Ident Type
1. KSBA Airport
2. KBUR Airport